sensor_id;sensor_type;location;lat;lon;timestamp;temperature;humidity
22779;DHT22;11556;51.194;3.800;2023-09-30T00:01:24;14.30;99.90
22779;DHT22;11556;51.194;3.800;2023-09-30T00:03:50;14.20;99.90
22779;DHT22;11556;51.194;3.800;2023-09-30T00:06:15;14.20;99.90
22779;DHT22;11556;51.194;3.800;2023-09-30T00:08:41;14.20;99.90
22779;DHT22;11556;51.194;3.800;2023-09-30T00:11:08;14.20;99.90
22779;DHT22;11556;51.194;3.800;2023-09-30T00:13:35;14.20;99.90
22779;DHT22;11556;51.194;3.800;2023-09-30T00:16:00;14.20;99.90
22779;DHT22;11556;51.194;3.800;2023-09-30T00:18:26;14.20;99.90
22779;DHT22;11556;51.194;3.800;2023-09-30T00:20:53;14.10;99.90
22779;DHT22;11556;51.194;3.800;2023-09-30T00:23:18;14.10;99.90
22779;DHT22;11556;51.194;3.800;2023-09-30T00:25:47;14.10;99.90
22779;DHT22;11556;51.194;3.800;2023-09-30T00:28:14;14.20;99.90
22779;DHT22;11556;51.194;3.800;2023-09-30T00:30:40;14.20;99.90
22779;DHT22;11556;51.194;3.800;2023-09-30T00:33:06;14.20;99.90
22779;DHT22;11556;51.194;3.800;2023-09-30T00:35:34;14.10;99.90
22779;DHT22;11556;51.194;3.800;2023-09-30T00:38:00;14.00;99.90
22779;DHT22;11556;51.194;3.800;2023-09-30T00:40:26;14.00;99.90
22779;DHT22;11556;51.194;3.800;2023-09-30T00:42:51;14.10;99.90
22779;DHT22;11556;51.194;3.800;2023-09-30T00:45:17;14.10;99.90
22779;DHT22;11556;51.194;3.800;2023-09-30T00:47:43;14.10;99.90
22779;DHT22;11556;51.194;3.800;2023-09-30T00:50:09;14.00;99.90
22779;DHT22;11556;51.194;3.800;2023-09-30T00:52:38;14.00;99.90
22779;DHT22;11556;51.194;3.800;2023-09-30T00:55:04;14.00;99.90
22779;DHT22;11556;51.194;3.800;2023-09-30T00:57:31;14.00;99.90
22779;DHT22;11556;51.194;3.800;2023-09-30T00:59:58;13.90;99.90
22779;DHT22;11556;51.194;3.800;2023-09-30T01:02:24;13.90;99.90
22779;DHT22;11556;51.194;3.800;2023-09-30T01:04:50;14.00;99.90
22779;DHT22;11556;51.194;3.800;2023-09-30T01:07:16;14.00;99.90
22779;DHT22;11556;51.194;3.800;2023-09-30T01:09:42;13.90;99.90
22779;DHT22;11556;51.194;3.800;2023-09-30T01:12:08;13.80;99.90
22779;DHT22;11556;51.194;3.800;2023-09-30T01:14:35;13.80;99.90
22779;DHT22;11556;51.194;3.800;2023-09-30T01:17:01;13.80;99.90
22779;DHT22;11556;51.194;3.800;2023-09-30T01:19:27;13.80;99.90
22779;DHT22;11556;51.194;3.800;2023-09-30T01:21:57;13.80;99.90
22779;DHT22;11556;51.194;3.800;2023-09-30T01:24:28;13.80;99.90
22779;DHT22;11556;51.194;3.800;2023-09-30T01:26:54;13.80;99.90
22779;DHT22;11556;51.194;3.800;2023-09-30T01:29:20;13.80;99.90
22779;DHT22;11556;51.194;3.800;2023-09-30T01:31:46;13.90;99.90
22779;DHT22;11556;51.194;3.800;2023-09-30T01:34:16;13.80;99.90
22779;DHT22;11556;51.194;3.800;2023-09-30T01:36:42;13.80;99.90
22779;DHT22;11556;51.194;3.800;2023-09-30T01:39:11;13.80;99.90
22779;DHT22;11556;51.194;3.800;2023-09-30T01:41:38;13.80;99.90
22779;DHT22;11556;51.194;3.800;2023-09-30T01:44:04;13.80;99.90
22779;DHT22;11556;51.194;3.800;2023-09-30T01:46:30;13.70;99.90
22779;DHT22;11556;51.194;3.800;2023-09-30T01:48:55;13.70;99.90
22779;DHT22;11556;51.194;3.800;2023-09-30T01:51:21;13.80;99.90
22779;DHT22;11556;51.194;3.800;2023-09-30T01:53:47;13.80;99.90
22779;DHT22;11556;51.194;3.800;2023-09-30T01:56:13;13.80;99.90
22779;DHT22;11556;51.194;3.800;2023-09-30T01:58:39;13.80;99.90
22779;DHT22;11556;51.194;3.800;2023-09-30T02:01:04;13.70;99.90
22779;DHT22;11556;51.194;3.800;2023-09-30T02:03:30;13.70;99.90
22779;DHT22;11556;51.194;3.800;2023-09-30T02:05:57;13.60;99.90
22779;DHT22;11556;51.194;3.800;2023-09-30T02:08:23;13.50;99.90
22779;DHT22;11556;51.194;3.800;2023-09-30T02:10:49;13.60;99.90
22779;DHT22;11556;51.194;3.800;2023-09-30T02:13:16;13.60;99.90
22779;DHT22;11556;51.194;3.800;2023-09-30T02:15:42;13.60;99.90
22779;DHT22;11556;51.194;3.800;2023-09-30T02:18:08;13.70;99.90
22779;DHT22;11556;51.194;3.800;2023-09-30T02:20:35;13.70;99.90
22779;DHT22;11556;51.194;3.800;2023-09-30T02:23:01;13.80;99.90
22779;DHT22;11556;51.194;3.800;2023-09-30T02:25:27;13.80;99.90
22779;DHT22;11556;51.194;3.800;2023-09-30T02:27:54;13.70;99.90
22779;DHT22;11556;51.194;3.800;2023-09-30T02:30:20;13.70;99.90
22779;DHT22;11556;51.194;3.800;2023-09-30T02:32:46;13.70;99.90
22779;DHT22;11556;51.194;3.800;2023-09-30T02:35:12;13.70;99.90
22779;DHT22;11556;51.194;3.800;2023-09-30T02:37:39;13.70;99.90
22779;DHT22;11556;51.194;3.800;2023-09-30T02:40:06;13.70;99.90
22779;DHT22;11556;51.194;3.800;2023-09-30T02:42:38;13.70;99.90
22779;DHT22;11556;51.194;3.800;2023-09-30T02:45:05;13.70;99.90
22779;DHT22;11556;51.194;3.800;2023-09-30T02:47:32;13.80;99.90
22779;DHT22;11556;51.194;3.800;2023-09-30T02:49:58;13.80;99.90
22779;DHT22;11556;51.194;3.800;2023-09-30T02:52:24;13.80;99.90
22779;DHT22;11556;51.194;3.800;2023-09-30T02:54:51;13.80;99.90
22779;DHT22;11556;51.194;3.800;2023-09-30T02:57:17;13.80;99.90
22779;DHT22;11556;51.194;3.800;2023-09-30T02:59:43;13.80;99.90
22779;DHT22;11556;51.194;3.800;2023-09-30T03:02:10;13.70;99.90
22779;DHT22;11556;51.194;3.800;2023-09-30T03:04:36;13.80;99.90
22779;DHT22;11556;51.194;3.800;2023-09-30T03:07:02;13.80;99.90
22779;DHT22;11556;51.194;3.800;2023-09-30T03:09:28;13.80;99.90
22779;DHT22;11556;51.194;3.800;2023-09-30T03:11:53;13.80;99.90
22779;DHT22;11556;51.194;3.800;2023-09-30T03:14:22;13.70;99.90
22779;DHT22;11556;51.194;3.800;2023-09-30T03:16:48;13.70;99.90
22779;DHT22;11556;51.194;3.800;2023-09-30T03:19:14;13.70;99.90
22779;DHT22;11556;51.194;3.800;2023-09-30T03:21:42;13.70;99.90
22779;DHT22;11556;51.194;3.800;2023-09-30T03:24:08;13.70;99.90
22779;DHT22;11556;51.194;3.800;2023-09-30T03:26:34;13.70;99.90
22779;DHT22;11556;51.194;3.800;2023-09-30T03:29:00;13.60;99.90
22779;DHT22;11556;51.194;3.800;2023-09-30T03:31:25;13.60;99.90
22779;DHT22;11556;51.194;3.800;2023-09-30T03:33:52;13.60;99.90
22779;DHT22;11556;51.194;3.800;2023-09-30T03:36:21;13.60;99.90
22779;DHT22;11556;51.194;3.800;2023-09-30T03:38:50;13.50;99.90
22779;DHT22;11556;51.194;3.800;2023-09-30T03:41:15;13.50;99.90
22779;DHT22;11556;51.194;3.800;2023-09-30T03:43:41;13.60;99.90
22779;DHT22;11556;51.194;3.800;2023-09-30T03:46:08;13.60;99.90
22779;DHT22;11556;51.194;3.800;2023-09-30T03:48:33;13.50;99.90
22779;DHT22;11556;51.194;3.800;2023-09-30T03:51:11;13.50;99.90
22779;DHT22;11556;51.194;3.800;2023-09-30T03:53:44;13.40;99.90
22779;DHT22;11556;51.194;3.800;2023-09-30T03:56:11;13.40;99.90
22779;DHT22;11556;51.194;3.800;2023-09-30T03:58:40;13.40;99.90
22779;DHT22;11556;51.194;3.800;2023-09-30T04:01:07;13.40;99.90
22779;DHT22;11556;51.194;3.800;2023-09-30T04:03:39;13.40;99.90
22779;DHT22;11556;51.194;3.800;2023-09-30T04:06:05;13.40;99.90
22779;DHT22;11556;51.194;3.800;2023-09-30T04:08:35;13.40;99.90
22779;DHT22;11556;51.194;3.800;2023-09-30T04:11:01;13.40;99.90
22779;DHT22;11556;51.194;3.800;2023-09-30T04:13:28;13.30;99.90
22779;DHT22;11556;51.194;3.800;2023-09-30T04:15:55;13.40;99.90
22779;DHT22;11556;51.194;3.800;2023-09-30T04:18:20;13.40;99.90
22779;DHT22;11556;51.194;3.800;2023-09-30T04:20:47;13.40;99.90
22779;DHT22;11556;51.194;3.800;2023-09-30T04:23:13;13.40;99.90
22779;DHT22;11556;51.194;3.800;2023-09-30T04:25:39;13.30;99.90
22779;DHT22;11556;51.194;3.800;2023-09-30T04:28:06;13.30;99.90
22779;DHT22;11556;51.194;3.800;2023-09-30T04:30:32;13.20;99.90
22779;DHT22;11556;51.194;3.800;2023-09-30T04:33:01;13.20;99.90
22779;DHT22;11556;51.194;3.800;2023-09-30T04:35:30;13.20;99.90
22779;DHT22;11556;51.194;3.800;2023-09-30T04:37:56;13.30;99.90
22779;DHT22;11556;51.194;3.800;2023-09-30T04:40:26;13.30;99.90
22779;DHT22;11556;51.194;3.800;2023-09-30T04:42:52;13.30;99.90
22779;DHT22;11556;51.194;3.800;2023-09-30T04:45:20;13.20;99.90
22779;DHT22;11556;51.194;3.800;2023-09-30T04:47:46;13.20;99.90
22779;DHT22;11556;51.194;3.800;2023-09-30T04:50:14;13.30;99.90
22779;DHT22;11556;51.194;3.800;2023-09-30T04:52:42;13.30;99.90
22779;DHT22;11556;51.194;3.800;2023-09-30T04:55:08;13.30;99.90
22779;DHT22;11556;51.194;3.800;2023-09-30T04:57:34;13.30;99.90
22779;DHT22;11556;51.194;3.800;2023-09-30T05:00:00;13.30;99.90
22779;DHT22;11556;51.194;3.800;2023-09-30T05:02:28;13.20;99.90
22779;DHT22;11556;51.194;3.800;2023-09-30T05:04:54;13.20;99.90
22779;DHT22;11556;51.194;3.800;2023-09-30T05:07:22;13.30;99.90
22779;DHT22;11556;51.194;3.800;2023-09-30T05:09:48;13.30;99.90
22779;DHT22;11556;51.194;3.800;2023-09-30T05:12:14;13.30;99.90
22779;DHT22;11556;51.194;3.800;2023-09-30T05:14:41;13.30;99.90
22779;DHT22;11556;51.194;3.800;2023-09-30T05:17:07;13.30;99.90
22779;DHT22;11556;51.194;3.800;2023-09-30T05:19:33;13.20;99.90
22779;DHT22;11556;51.194;3.800;2023-09-30T05:21:59;13.20;99.90
22779;DHT22;11556;51.194;3.800;2023-09-30T05:24:29;13.20;99.90
22779;DHT22;11556;51.194;3.800;2023-09-30T05:26:55;13.20;99.90
22779;DHT22;11556;51.194;3.800;2023-09-30T05:29:21;13.30;99.90
22779;DHT22;11556;51.194;3.800;2023-09-30T05:31:47;13.20;99.90
22779;DHT22;11556;51.194;3.800;2023-09-30T05:34:13;13.20;99.90
22779;DHT22;11556;51.194;3.800;2023-09-30T05:36:39;13.20;99.90
22779;DHT22;11556;51.194;3.800;2023-09-30T05:39:05;13.20;99.90
22779;DHT22;11556;51.194;3.800;2023-09-30T05:41:31;13.10;99.90
22779;DHT22;11556;51.194;3.800;2023-09-30T05:43:57;13.20;99.90
22779;DHT22;11556;51.194;3.800;2023-09-30T05:46:24;13.20;99.90
22779;DHT22;11556;51.194;3.800;2023-09-30T05:48:50;13.10;99.90
22779;DHT22;11556;51.194;3.800;2023-09-30T05:51:16;13.10;99.90
22779;DHT22;11556;51.194;3.800;2023-09-30T05:53:42;13.10;99.90
22779;DHT22;11556;51.194;3.800;2023-09-30T05:56:10;13.10;99.90
22779;DHT22;11556;51.194;3.800;2023-09-30T05:58:41;13.20;99.90
22779;DHT22;11556;51.194;3.800;2023-09-30T06:01:10;13.30;99.90
22779;DHT22;11556;51.194;3.800;2023-09-30T06:03:41;13.40;99.90
22779;DHT22;11556;51.194;3.800;2023-09-30T06:06:13;13.40;99.90
22779;DHT22;11556;51.194;3.800;2023-09-30T06:08:44;13.50;99.90
22779;DHT22;11556;51.194;3.800;2023-09-30T06:11:17;13.50;99.90
22779;DHT22;11556;51.194;3.800;2023-09-30T06:13:43;13.60;99.90
22779;DHT22;11556;51.194;3.800;2023-09-30T06:16:08;13.60;99.90
22779;DHT22;11556;51.194;3.800;2023-09-30T06:18:36;13.60;99.90
22779;DHT22;11556;51.194;3.800;2023-09-30T06:21:02;13.60;99.90
22779;DHT22;11556;51.194;3.800;2023-09-30T06:23:29;13.70;99.90
22779;DHT22;11556;51.194;3.800;2023-09-30T06:25:55;13.80;99.90
22779;DHT22;11556;51.194;3.800;2023-09-30T06:28:21;13.80;99.90
22779;DHT22;11556;51.194;3.800;2023-09-30T06:30:52;13.80;99.90
22779;DHT22;11556;51.194;3.800;2023-09-30T06:33:17;13.80;99.90
22779;DHT22;11556;51.194;3.800;2023-09-30T06:35:43;13.80;99.90
22779;DHT22;11556;51.194;3.800;2023-09-30T06:38:19;13.80;99.90
22779;DHT22;11556;51.194;3.800;2023-09-30T06:40:45;13.90;99.90
22779;DHT22;11556;51.194;3.800;2023-09-30T06:43:15;13.80;99.90
22779;DHT22;11556;51.194;3.800;2023-09-30T06:45:42;13.80;99.90
22779;DHT22;11556;51.194;3.800;2023-09-30T06:48:09;13.80;99.90
22779;DHT22;11556;51.194;3.800;2023-09-30T06:50:49;14.00;99.90
22779;DHT22;11556;51.194;3.800;2023-09-30T06:53:16;14.20;99.90
22779;DHT22;11556;51.194;3.800;2023-09-30T06:55:42;14.60;99.90
22779;DHT22;11556;51.194;3.800;2023-09-30T06:58:11;14.80;99.90
22779;DHT22;11556;51.194;3.800;2023-09-30T07:00:41;15.40;99.90
22779;DHT22;11556;51.194;3.800;2023-09-30T07:03:07;15.90;99.90
22779;DHT22;11556;51.194;3.800;2023-09-30T07:05:36;16.10;99.90
22779;DHT22;11556;51.194;3.800;2023-09-30T07:08:01;16.10;99.90
22779;DHT22;11556;51.194;3.800;2023-09-30T07:10:28;16.00;99.90
22779;DHT22;11556;51.194;3.800;2023-09-30T07:12:55;16.50;99.90
22779;DHT22;11556;51.194;3.800;2023-09-30T07:15:21;17.20;99.90
22779;DHT22;11556;51.194;3.800;2023-09-30T07:17:46;17.40;99.90
22779;DHT22;11556;51.194;3.800;2023-09-30T07:20:13;17.40;99.90
22779;DHT22;11556;51.194;3.800;2023-09-30T07:22:39;17.40;99.90
22779;DHT22;11556;51.194;3.800;2023-09-30T07:25:06;17.40;99.90
22779;DHT22;11556;51.194;3.800;2023-09-30T07:27:32;18.00;99.90
22779;DHT22;11556;51.194;3.800;2023-09-30T07:29:59;18.60;99.90
22779;DHT22;11556;51.194;3.800;2023-09-30T07:32:25;19.00;99.90
22779;DHT22;11556;51.194;3.800;2023-09-30T07:34:51;19.00;99.90
22779;DHT22;11556;51.194;3.800;2023-09-30T07:37:17;19.00;99.90
22779;DHT22;11556;51.194;3.800;2023-09-30T07:39:44;19.50;99.90
22779;DHT22;11556;51.194;3.800;2023-09-30T07:42:10;19.70;99.90
22779;DHT22;11556;51.194;3.800;2023-09-30T07:44:35;19.60;99.90
22779;DHT22;11556;51.194;3.800;2023-09-30T07:47:03;20.10;99.90
22779;DHT22;11556;51.194;3.800;2023-09-30T07:49:29;20.60;99.90
22779;DHT22;11556;51.194;3.800;2023-09-30T07:51:55;21.00;99.90
22779;DHT22;11556;51.194;3.800;2023-09-30T07:54:21;21.10;99.90
22779;DHT22;11556;51.194;3.800;2023-09-30T07:56:47;21.10;99.90
22779;DHT22;11556;51.194;3.800;2023-09-30T07:59:12;21.10;99.90
22779;DHT22;11556;51.194;3.800;2023-09-30T08:01:39;20.90;99.90
22779;DHT22;11556;51.194;3.800;2023-09-30T08:04:06;20.90;99.90
22779;DHT22;11556;51.194;3.800;2023-09-30T08:06:31;20.80;99.90
22779;DHT22;11556;51.194;3.800;2023-09-30T08:08:57;21.20;99.90
22779;DHT22;11556;51.194;3.800;2023-09-30T08:11:23;21.40;99.90
22779;DHT22;11556;51.194;3.800;2023-09-30T08:13:50;21.60;99.90
22779;DHT22;11556;51.194;3.800;2023-09-30T08:16:16;21.90;99.90
22779;DHT22;11556;51.194;3.800;2023-09-30T08:18:41;21.80;99.90
22779;DHT22;11556;51.194;3.800;2023-09-30T08:21:10;21.60;99.90
22779;DHT22;11556;51.194;3.800;2023-09-30T08:23:37;21.40;99.90
22779;DHT22;11556;51.194;3.800;2023-09-30T08:26:04;20.70;99.90
22779;DHT22;11556;51.194;3.800;2023-09-30T08:28:31;20.60;99.90
22779;DHT22;11556;51.194;3.800;2023-09-30T08:31:04;20.70;99.90
22779;DHT22;11556;51.194;3.800;2023-09-30T08:33:32;20.80;99.90
22779;DHT22;11556;51.194;3.800;2023-09-30T08:36:04;20.70;99.90
22779;DHT22;11556;51.194;3.800;2023-09-30T08:38:40;20.50;99.90
22779;DHT22;11556;51.194;3.800;2023-09-30T08:41:07;20.50;99.90
22779;DHT22;11556;51.194;3.800;2023-09-30T08:43:39;20.50;99.90
22779;DHT22;11556;51.194;3.800;2023-09-30T08:46:06;21.00;99.90
22779;DHT22;11556;51.194;3.800;2023-09-30T08:48:33;20.90;99.90
22779;DHT22;11556;51.194;3.800;2023-09-30T08:50:59;21.10;99.90
22779;DHT22;11556;51.194;3.800;2023-09-30T08:53:26;21.30;99.90
22779;DHT22;11556;51.194;3.800;2023-09-30T08:55:55;21.20;99.90
22779;DHT22;11556;51.194;3.800;2023-09-30T08:58:26;21.50;99.90
22779;DHT22;11556;51.194;3.800;2023-09-30T09:00:52;21.80;99.90
22779;DHT22;11556;51.194;3.800;2023-09-30T09:03:19;21.70;99.90
22779;DHT22;11556;51.194;3.800;2023-09-30T09:05:45;21.70;99.90
22779;DHT22;11556;51.194;3.800;2023-09-30T09:08:11;21.40;99.90
22779;DHT22;11556;51.194;3.800;2023-09-30T09:10:56;21.30;99.90
22779;DHT22;11556;51.194;3.800;2023-09-30T09:13:22;21.20;99.90
22779;DHT22;11556;51.194;3.800;2023-09-30T09:15:48;21.40;99.90
22779;DHT22;11556;51.194;3.800;2023-09-30T09:18:31;21.90;99.90
22779;DHT22;11556;51.194;3.800;2023-09-30T09:21:20;22.40;99.90
22779;DHT22;11556;51.194;3.800;2023-09-30T09:23:48;22.30;99.90
22779;DHT22;11556;51.194;3.800;2023-09-30T09:26:26;22.80;99.90
22779;DHT22;11556;51.194;3.800;2023-09-30T09:29:00;23.30;99.90
22779;DHT22;11556;51.194;3.800;2023-09-30T09:31:28;23.10;99.90
22779;DHT22;11556;51.194;3.800;2023-09-30T09:33:54;23.70;99.90
22779;DHT22;11556;51.194;3.800;2023-09-30T09:36:20;23.70;99.90
22779;DHT22;11556;51.194;3.800;2023-09-30T09:38:47;23.90;99.90
22779;DHT22;11556;51.194;3.800;2023-09-30T09:41:14;23.90;99.90
22779;DHT22;11556;51.194;3.800;2023-09-30T09:43:41;23.40;99.90
22779;DHT22;11556;51.194;3.800;2023-09-30T09:46:08;23.20;99.90
22779;DHT22;11556;51.194;3.800;2023-09-30T09:48:37;23.70;99.90
22779;DHT22;11556;51.194;3.800;2023-09-30T09:51:04;24.10;99.90
22779;DHT22;11556;51.194;3.800;2023-09-30T09:53:36;24.20;99.90
22779;DHT22;11556;51.194;3.800;2023-09-30T09:56:08;24.70;99.90
22779;DHT22;11556;51.194;3.800;2023-09-30T09:58:35;25.10;99.90
22779;DHT22;11556;51.194;3.800;2023-09-30T10:01:03;25.50;99.90
22779;DHT22;11556;51.194;3.800;2023-09-30T10:03:28;25.60;99.90
22779;DHT22;11556;51.194;3.800;2023-09-30T10:05:54;25.60;99.90
22779;DHT22;11556;51.194;3.800;2023-09-30T10:08:21;25.90;99.90
22779;DHT22;11556;51.194;3.800;2023-09-30T10:10:54;26.20;99.90
22779;DHT22;11556;51.194;3.800;2023-09-30T10:13:51;26.90;99.90
22779;DHT22;11556;51.194;3.800;2023-09-30T10:19:16;27.70;99.90
22779;DHT22;11556;51.194;3.800;2023-09-30T10:24:55;27.30;99.90
22779;DHT22;11556;51.194;3.800;2023-09-30T10:37:45;26.30;99.90
22779;DHT22;11556;51.194;3.800;2023-09-30T10:40:26;26.00;99.90
22779;DHT22;11556;51.194;3.800;2023-09-30T10:42:52;26.10;99.90
22779;DHT22;11556;51.194;3.800;2023-09-30T10:51:16;25.70;99.90
22779;DHT22;11556;51.194;3.800;2023-09-30T10:53:46;25.60;99.90
22779;DHT22;11556;51.194;3.800;2023-09-30T10:56:13;26.00;99.90
22779;DHT22;11556;51.194;3.800;2023-09-30T11:01:08;26.10;99.90
22779;DHT22;11556;51.194;3.800;2023-09-30T11:03:34;26.60;99.90
22779;DHT22;11556;51.194;3.800;2023-09-30T11:06:00;26.80;99.90
22779;DHT22;11556;51.194;3.800;2023-09-30T11:08:28;27.00;99.90
22779;DHT22;11556;51.194;3.800;2023-09-30T11:10:57;27.10;99.80
22779;DHT22;11556;51.194;3.800;2023-09-30T11:13:31;26.90;99.90
22779;DHT22;11556;51.194;3.800;2023-09-30T11:16:04;27.00;99.90
22779;DHT22;11556;51.194;3.800;2023-09-30T11:18:31;26.80;99.20
22779;DHT22;11556;51.194;3.800;2023-09-30T11:23:29;28.40;96.20
22779;DHT22;11556;51.194;3.800;2023-09-30T11:25:56;29.00;94.60
22779;DHT22;11556;51.194;3.800;2023-09-30T11:28:22;28.90;92.60
22779;DHT22;11556;51.194;3.800;2023-09-30T11:30:59;28.60;93.00
22779;DHT22;11556;51.194;3.800;2023-09-30T11:33:25;28.30;93.40
22779;DHT22;11556;51.194;3.800;2023-09-30T11:36:02;28.10;92.60
22779;DHT22;11556;51.194;3.800;2023-09-30T11:38:29;28.20;93.30
22779;DHT22;11556;51.194;3.800;2023-09-30T11:41:13;28.10;92.60
22779;DHT22;11556;51.194;3.800;2023-09-30T11:43:39;28.50;91.10
22779;DHT22;11556;51.194;3.800;2023-09-30T11:46:10;28.40;92.20
22779;DHT22;11556;51.194;3.800;2023-09-30T11:48:58;28.20;91.00
22779;DHT22;11556;51.194;3.800;2023-09-30T11:51:41;28.60;89.90
22779;DHT22;11556;51.194;3.800;2023-09-30T11:54:09;28.80;88.40
22779;DHT22;11556;51.194;3.800;2023-09-30T11:56:36;29.30;84.70
22779;DHT22;11556;51.194;3.800;2023-09-30T11:59:02;29.60;84.00
22779;DHT22;11556;51.194;3.800;2023-09-30T12:01:29;30.10;80.10
22779;DHT22;11556;51.194;3.800;2023-09-30T12:03:57;30.10;76.30
22779;DHT22;11556;51.194;3.800;2023-09-30T12:06:23;30.70;72.20
22779;DHT22;11556;51.194;3.800;2023-09-30T12:08:49;29.90;71.40
22779;DHT22;11556;51.194;3.800;2023-09-30T12:11:20;29.10;66.60
22779;DHT22;11556;51.194;3.800;2023-09-30T12:13:45;28.10;71.70
22779;DHT22;11556;51.194;3.800;2023-09-30T12:16:14;27.70;72.40
22779;DHT22;11556;51.194;3.800;2023-09-30T12:18:40;28.40;70.50
22779;DHT22;11556;51.194;3.800;2023-09-30T12:21:10;28.90;69.30
22779;DHT22;11556;51.194;3.800;2023-09-30T12:23:36;28.30;73.10
22779;DHT22;11556;51.194;3.800;2023-09-30T12:26:02;27.50;72.40
22779;DHT22;11556;51.194;3.800;2023-09-30T12:28:31;27.00;72.50
22779;DHT22;11556;51.194;3.800;2023-09-30T12:30:58;27.00;76.50
22779;DHT22;11556;51.194;3.800;2023-09-30T12:33:24;27.40;77.20
22779;DHT22;11556;51.194;3.800;2023-09-30T12:35:49;28.70;73.50
22779;DHT22;11556;51.194;3.800;2023-09-30T12:38:17;29.80;67.40
22779;DHT22;11556;51.194;3.800;2023-09-30T12:40:42;29.80;68.70
22779;DHT22;11556;51.194;3.800;2023-09-30T12:43:09;30.60;68.40
22779;DHT22;11556;51.194;3.800;2023-09-30T12:45:35;31.60;65.30
22779;DHT22;11556;51.194;3.800;2023-09-30T12:48:04;32.50;61.40
22779;DHT22;11556;51.194;3.800;2023-09-30T12:50:30;33.00;57.60
22779;DHT22;11556;51.194;3.800;2023-09-30T12:52:55;32.80;54.70
22779;DHT22;11556;51.194;3.800;2023-09-30T12:55:21;32.90;55.30
22779;DHT22;11556;51.194;3.800;2023-09-30T12:57:47;33.00;53.00
22779;DHT22;11556;51.194;3.800;2023-09-30T13:00:13;32.10;53.10
22779;DHT22;11556;51.194;3.800;2023-09-30T13:02:41;31.00;55.30
22779;DHT22;11556;51.194;3.800;2023-09-30T13:05:07;29.50;58.80
22779;DHT22;11556;51.194;3.800;2023-09-30T13:07:33;29.10;60.60
22779;DHT22;11556;51.194;3.800;2023-09-30T13:09:58;29.00;60.00
22779;DHT22;11556;51.194;3.800;2023-09-30T13:12:26;29.10;60.40
22779;DHT22;11556;51.194;3.800;2023-09-30T13:14:52;29.30;58.90
22779;DHT22;11556;51.194;3.800;2023-09-30T13:17:22;29.20;58.60
22779;DHT22;11556;51.194;3.800;2023-09-30T13:19:47;28.20;63.30
22779;DHT22;11556;51.194;3.800;2023-09-30T13:22:13;28.30;63.20
22779;DHT22;11556;51.194;3.800;2023-09-30T13:24:39;27.90;63.60
22779;DHT22;11556;51.194;3.800;2023-09-30T13:27:05;27.80;62.50
22779;DHT22;11556;51.194;3.800;2023-09-30T13:29:31;27.70;62.40
22779;DHT22;11556;51.194;3.800;2023-09-30T13:31:57;28.00;63.50
22779;DHT22;11556;51.194;3.800;2023-09-30T13:34:23;28.80;62.10
22779;DHT22;11556;51.194;3.800;2023-09-30T13:36:48;29.20;59.00
22779;DHT22;11556;51.194;3.800;2023-09-30T13:39:14;28.70;61.00
22779;DHT22;11556;51.194;3.800;2023-09-30T13:41:43;28.10;60.80
22779;DHT22;11556;51.194;3.800;2023-09-30T13:44:09;28.30;60.70
22779;DHT22;11556;51.194;3.800;2023-09-30T13:46:36;28.90;59.20
22779;DHT22;11556;51.194;3.800;2023-09-30T13:49:01;29.40;59.80
22779;DHT22;11556;51.194;3.800;2023-09-30T13:51:27;29.30;60.20
22779;DHT22;11556;51.194;3.800;2023-09-30T13:53:53;29.70;59.30
22779;DHT22;11556;51.194;3.800;2023-09-30T13:56:19;30.40;58.80
22779;DHT22;11556;51.194;3.800;2023-09-30T13:58:44;31.10;57.80
22779;DHT22;11556;51.194;3.800;2023-09-30T14:01:13;31.10;55.20
22779;DHT22;11556;51.194;3.800;2023-09-30T14:03:39;30.40;56.00
22779;DHT22;11556;51.194;3.800;2023-09-30T14:06:10;29.60;59.40
22779;DHT22;11556;51.194;3.800;2023-09-30T14:08:36;29.60;58.30
22779;DHT22;11556;51.194;3.800;2023-09-30T14:11:02;29.50;59.30
22779;DHT22;11556;51.194;3.800;2023-09-30T14:13:27;29.50;60.30
22779;DHT22;11556;51.194;3.800;2023-09-30T14:15:53;29.50;61.40
22779;DHT22;11556;51.194;3.800;2023-09-30T14:18:19;29.50;59.60
22779;DHT22;11556;51.194;3.800;2023-09-30T14:20:44;29.20;61.10
22779;DHT22;11556;51.194;3.800;2023-09-30T14:23:11;29.00;62.10
22779;DHT22;11556;51.194;3.800;2023-09-30T14:25:37;29.00;60.50
22779;DHT22;11556;51.194;3.800;2023-09-30T14:28:03;28.40;61.20
22779;DHT22;11556;51.194;3.800;2023-09-30T14:30:28;27.90;61.20
22779;DHT22;11556;51.194;3.800;2023-09-30T14:32:54;27.50;65.10
22779;DHT22;11556;51.194;3.800;2023-09-30T14:35:20;27.10;64.10
22779;DHT22;11556;51.194;3.800;2023-09-30T14:37:46;27.20;62.80
22779;DHT22;11556;51.194;3.800;2023-09-30T14:40:11;27.50;61.10
22779;DHT22;11556;51.194;3.800;2023-09-30T14:42:38;27.40;61.50
22779;DHT22;11556;51.194;3.800;2023-09-30T14:45:05;27.50;61.30
22779;DHT22;11556;51.194;3.800;2023-09-30T14:47:30;27.30;60.70
22779;DHT22;11556;51.194;3.800;2023-09-30T14:49:56;27.20;61.80
22779;DHT22;11556;51.194;3.800;2023-09-30T14:52:22;27.30;62.60
22779;DHT22;11556;51.194;3.800;2023-09-30T14:54:47;27.40;63.60
22779;DHT22;11556;51.194;3.800;2023-09-30T14:57:13;27.50;63.30
22779;DHT22;11556;51.194;3.800;2023-09-30T14:59:43;27.00;63.90
22779;DHT22;11556;51.194;3.800;2023-09-30T15:02:08;26.30;65.10
22779;DHT22;11556;51.194;3.800;2023-09-30T15:04:34;26.20;66.30
22779;DHT22;11556;51.194;3.800;2023-09-30T15:07:00;26.20;66.50
22779;DHT22;11556;51.194;3.800;2023-09-30T15:09:26;25.90;68.20
22779;DHT22;11556;51.194;3.800;2023-09-30T15:11:52;25.70;68.80
22779;DHT22;11556;51.194;3.800;2023-09-30T15:14:18;25.70;70.50
22779;DHT22;11556;51.194;3.800;2023-09-30T15:16:44;25.70;72.60
22779;DHT22;11556;51.194;3.800;2023-09-30T15:19:10;25.70;70.40
22779;DHT22;11556;51.194;3.800;2023-09-30T15:21:36;25.80;69.90
22779;DHT22;11556;51.194;3.800;2023-09-30T15:24:02;26.20;69.10
22779;DHT22;11556;51.194;3.800;2023-09-30T15:26:29;26.40;69.70
22779;DHT22;11556;51.194;3.800;2023-09-30T15:28:56;26.80;69.80
22779;DHT22;11556;51.194;3.800;2023-09-30T15:31:27;27.10;67.00
22779;DHT22;11556;51.194;3.800;2023-09-30T15:33:54;27.20;66.00
22779;DHT22;11556;51.194;3.800;2023-09-30T15:36:19;27.10;67.00
22779;DHT22;11556;51.194;3.800;2023-09-30T15:38:46;27.10;68.50
22779;DHT22;11556;51.194;3.800;2023-09-30T15:41:13;26.80;67.10
22779;DHT22;11556;51.194;3.800;2023-09-30T15:43:38;26.50;68.20
22779;DHT22;11556;51.194;3.800;2023-09-30T15:46:04;26.00;69.60
22779;DHT22;11556;51.194;3.800;2023-09-30T15:48:30;25.70;71.70
22779;DHT22;11556;51.194;3.800;2023-09-30T15:50:56;25.70;70.30
22779;DHT22;11556;51.194;3.800;2023-09-30T15:53:22;25.20;72.00
22779;DHT22;11556;51.194;3.800;2023-09-30T15:55:48;25.30;73.30
22779;DHT22;11556;51.194;3.800;2023-09-30T15:58:14;25.00;74.20